Hillsdale, Kansas
Current Conditions -  °F | °C
As of 5:53 PM on Saturday 20 Dec 2014 (Local Time) from KIXD Reporting Station
Clear Clear  
Wind Chill: 33°   Ceiling: Unl
Heat Index: 39°   Visibility: 8mi
Dew Point: 35°   Wind: 9mph
Humidity: 86%   Direction: 170°S
Pressure: 30.13"   Gusts: NA
Location:  38.66°N, 94.85°W
Report Text: KIXD 202353Z 17008KT 8SM CLR 04/02 A3013 RMK AO2 SLP210 T00390017 10078 20033 53005
Loading
Personal Weather Stations






























Interactive Weather Map New forecast layout! Learn more

10-Day Weather Forecast

Advertisements
Track Severe Weather on mobile